SADFSULS

Guest
Details From SADF - San Fernando
To SULS - CAPITAN CORBETA C A CURBELO INTL
Flight Number -
Tags generated
Created
Modified
Stats Distance 174 nm / 323 km
Max Altitude 15,500 ft / 4,724 m
Waypoints 3
Social Downloads 1
Likes 0
Share VATSIM

Download

Looking for another format? Having issues loading an existing format? Contact us
Advertisement - Login to hide

Notes

Basic altitude profile: - Ascent Rate: 1000ft/min - Ascent Speed: 90kts - Cruise Altitude: 50ft - Cruise Speed: 140kts - Descent Rate: 500ft/min - Descent Speed: 150kts Options: - Use NATs: yes - Use PACOTS: yes - Use low airways: yes - Use high airways: no

Route

SADF BERTA SULS

ID Type Via Altitude Latitude Longitude Leg Dist Tot Dist Heading (true) Name
O SADF APT - 0 ft / 0 m -34.45404˚ -58.59023˚ - 0 nm - San Fernando
BERTA FIX - 15,500 ft / 4,724 m -34.70056˚ -56.64889˚ 97 nm 97 nm 99° / 98° -
O SULS APT - 0 ft / 0 m -34.85716˚ -55.09769˚ 77 nm 174 nm 97° / 97° CAPITAN CORBETA C A CURBELO INTL

Altitude Profile

Advertisement - Login to hide

Weather


0- 5 10 15 20 25 30 35+ Temperature / ° C

Clouds and Precipitation
Forecast for 2017-12-18 06:00 UTC. Updated 2 hours ago

Ground ~20,000 ft ~40,000 ft Winds

SADF

Details ICAO SADF
Name San Fernando
Region Argentina
Timezone America/Argentina/Buenos_Aires (UTC-3.0)
Stats Elevation 10 ft / 3 m (AMSL)
Location -34.454044° -58.590226°
Runways 1
Magnetic Variation 8.893° W

METAR

SADF 180500Z 02010KT 360V070 9999 BKN038 17/08 Q1023

Decode

TAF

TAF SADF 172300Z 1800/1824 14010KT CAVOK TX25/1818Z TN14/1810Z BECMG 1803/1806 09005KT BECMG 1808/1811 07010KT 9999 FEW020 BECMG 1813/1815 09010KT CAVOK BECMG 1818/1820 09015KT

Decode

Departure Runways

ID Width Length Bearing (true) Bearing (mag) Surface Threshold Offset Overrun Length
05 131 ft / 40 m 5,904 ft / 1,800 m 44.03° 52.92° Asphalt 0 ft / 0 m 0 ft / 0 m
23 131 ft / 40 m 5,904 ft / 1,800 m 224.02° 232.91° Asphalt 899 ft / 274 m 0 ft / 0 m

SULS

Details ICAO SULS (PDP)
Name CAPITAN CORBETA C A CURBELO INTL
Region Uruguay
Timezone America/Montevideo (UTC-3.0)
Stats Elevation 95 ft / 29 m (AMSL)
Location -34.857160° -55.097687°
Runways 2
Magnetic Variation 11.555° W

METAR

SULS 180500Z 12006KT 100V170 9999 FEW026 13/05 Q1023

Decode

TAF

TAF SULS 172340Z 1800/1824 16010G20KT 9999 SCT030 TX24/1818Z TN12/1809Z BECMG 1803/1805 11010KT CAVOK BECMG 1815/1817 13015G25KT 9999 SCT026

Decode

Destination Runways

ID Width Length Bearing (true) Bearing (mag) Surface Threshold Offset Overrun Length
01 125 ft / 38 m 5,263 ft / 1,604 m 357.91° 9.46° Asphalt 0 ft / 0 m 0 ft / 0 m
08 148 ft / 45 m 6,991 ft / 2,131 m 72.39° 83.94° Asphalt 0 ft / 0 m 0 ft / 0 m
19 125 ft / 38 m 5,263 ft / 1,604 m 177.91° 189.46° Asphalt 0 ft / 0 m 0 ft / 0 m
26 148 ft / 45 m 6,991 ft / 2,131 m 252.37° 263.92° Asphalt 0 ft / 0 m 0 ft / 0 m

Popular Alternatives